sensor_id;sensor_type;location;lat;lon;timestamp;P1;durP1;ratioP1;P2;durP2;ratioP2
5285;SDS011;2665;53.112;7.358;2023-04-08T00:00:15;4.80;;;3.83;;
5285;SDS011;2665;53.112;7.358;2023-04-08T00:02:41;4.60;;;3.87;;
5285;SDS011;2665;53.112;7.358;2023-04-08T00:05:07;7.13;;;4.30;;
5285;SDS011;2665;53.112;7.358;2023-04-08T00:07:33;4.80;;;3.17;;
5285;SDS011;2665;53.112;7.358;2023-04-08T00:09:59;7.43;;;4.10;;
5285;SDS011;2665;53.112;7.358;2023-04-08T00:12:24;6.73;;;4.20;;
5285;SDS011;2665;53.112;7.358;2023-04-08T00:14:50;5.97;;;4.07;;
5285;SDS011;2665;53.112;7.358;2023-04-08T00:17:16;8.70;;;4.20;;
5285;SDS011;2665;53.112;7.358;2023-04-08T00:19:42;7.63;;;4.07;;
5285;SDS011;2665;53.112;7.358;2023-04-08T00:22:08;4.87;;;3.23;;
5285;SDS011;2665;53.112;7.358;2023-04-08T00:24:34;6.60;;;3.90;;
5285;SDS011;2665;53.112;7.358;2023-04-08T00:27:00;6.80;;;4.13;;
5285;SDS011;2665;53.112;7.358;2023-04-08T00:29:26;4.50;;;3.27;;
5285;SDS011;2665;53.112;7.358;2023-04-08T00:31:52;4.73;;;3.90;;
5285;SDS011;2665;53.112;7.358;2023-04-08T00:34:18;6.40;;;3.57;;
5285;SDS011;2665;53.112;7.358;2023-04-08T00:36:45;9.20;;;4.23;;
5285;SDS011;2665;53.112;7.358;2023-04-08T00:39:13;5.97;;;4.10;;
5285;SDS011;2665;53.112;7.358;2023-04-08T00:41:39;5.00;;;3.57;;
5285;SDS011;2665;53.112;7.358;2023-04-08T00:44:04;6.63;;;3.73;;
5285;SDS011;2665;53.112;7.358;2023-04-08T00:46:32;5.20;;;3.90;;
5285;SDS011;2665;53.112;7.358;2023-04-08T00:49:00;5.77;;;4.00;;
5285;SDS011;2665;53.112;7.358;2023-04-08T00:51:27;5.77;;;3.60;;
5285;SDS011;2665;53.112;7.358;2023-04-08T00:53:55;9.30;;;4.10;;
5285;SDS011;2665;53.112;7.358;2023-04-08T00:56:21;5.07;;;3.93;;
5285;SDS011;2665;53.112;7.358;2023-04-08T00:58:47;5.97;;;4.27;;
5285;SDS011;2665;53.112;7.358;2023-04-08T01:01:17;4.57;;;3.40;;
5285;SDS011;2665;53.112;7.358;2023-04-08T01:09:27;6.20;;;3.93;;
5285;SDS011;2665;53.112;7.358;2023-04-08T01:11:56;5.03;;;3.97;;
5285;SDS011;2665;53.112;7.358;2023-04-08T01:14:26;9.70;;;4.40;;
5285;SDS011;2665;53.112;7.358;2023-04-08T01:16:55;6.57;;;4.93;;
5285;SDS011;2665;53.112;7.358;2023-04-08T01:19:32;7.20;;;4.30;;
5285;SDS011;2665;53.112;7.358;2023-04-08T01:22:08;8.87;;;5.10;;
5285;SDS011;2665;53.112;7.358;2023-04-08T01:24:38;5.83;;;4.40;;
5285;SDS011;2665;53.112;7.358;2023-04-08T01:27:07;5.70;;;5.10;;
5285;SDS011;2665;53.112;7.358;2023-04-08T01:29:36;8.00;;;4.60;;
5285;SDS011;2665;53.112;7.358;2023-04-08T01:32:02;6.27;;;4.37;;
5285;SDS011;2665;53.112;7.358;2023-04-08T01:34:30;8.77;;;5.17;;
5285;SDS011;2665;53.112;7.358;2023-04-08T01:36:57;7.10;;;5.17;;
5285;SDS011;2665;53.112;7.358;2023-04-08T01:39:24;8.23;;;4.67;;
5285;SDS011;2665;53.112;7.358;2023-04-08T01:41:50;10.27;;;4.70;;
5285;SDS011;2665;53.112;7.358;2023-04-08T01:44:18;7.90;;;5.40;;
5285;SDS011;2665;53.112;7.358;2023-04-08T01:46:45;6.60;;;4.67;;
5285;SDS011;2665;53.112;7.358;2023-04-08T01:49:13;8.73;;;5.30;;
5285;SDS011;2665;53.112;7.358;2023-04-08T01:51:40;9.03;;;5.67;;
5285;SDS011;2665;53.112;7.358;2023-04-08T01:54:05;7.80;;;5.43;;
5285;SDS011;2665;53.112;7.358;2023-04-08T01:56:32;10.07;;;5.43;;
5285;SDS011;2665;53.112;7.358;2023-04-08T01:59:01;7.53;;;5.10;;
5285;SDS011;2665;53.112;7.358;2023-04-08T02:01:33;8.07;;;5.20;;
5285;SDS011;2665;53.112;7.358;2023-04-08T02:03:59;9.53;;;4.90;;
5285;SDS011;2665;53.112;7.358;2023-04-08T02:06:27;8.67;;;5.50;;
5285;SDS011;2665;53.112;7.358;2023-04-08T02:08:53;7.57;;;5.63;;
5285;SDS011;2665;53.112;7.358;2023-04-08T02:11:19;6.70;;;5.00;;
5285;SDS011;2665;53.112;7.358;2023-04-08T02:13:45;9.23;;;5.40;;
5285;SDS011;2665;53.112;7.358;2023-04-08T02:16:21;8.37;;;4.87;;
5285;SDS011;2665;53.112;7.358;2023-04-08T02:18:59;7.87;;;5.50;;
5285;SDS011;2665;53.112;7.358;2023-04-08T02:21:32;7.70;;;5.63;;
5285;SDS011;2665;53.112;7.358;2023-04-08T02:24:05;9.97;;;6.20;;
5285;SDS011;2665;53.112;7.358;2023-04-08T02:26:33;7.97;;;5.20;;
5285;SDS011;2665;53.112;7.358;2023-04-08T02:29:01;9.57;;;5.17;;
5285;SDS011;2665;53.112;7.358;2023-04-08T02:31:28;9.60;;;5.37;;
5285;SDS011;2665;53.112;7.358;2023-04-08T02:33:54;7.10;;;4.67;;
5285;SDS011;2665;53.112;7.358;2023-04-08T02:36:21;8.37;;;5.23;;
5285;SDS011;2665;53.112;7.358;2023-04-08T02:38:48;8.00;;;5.00;;
5285;SDS011;2665;53.112;7.358;2023-04-08T02:41:14;8.90;;;5.40;;
5285;SDS011;2665;53.112;7.358;2023-04-08T02:43:40;6.93;;;4.97;;
5285;SDS011;2665;53.112;7.358;2023-04-08T02:46:06;8.23;;;5.10;;
5285;SDS011;2665;53.112;7.358;2023-04-08T02:48:34;11.40;;;6.00;;
5285;SDS011;2665;53.112;7.358;2023-04-08T02:51:00;10.10;;;6.60;;
5285;SDS011;2665;53.112;7.358;2023-04-08T02:53:26;9.10;;;5.67;;
5285;SDS011;2665;53.112;7.358;2023-04-08T02:55:51;6.73;;;4.87;;
5285;SDS011;2665;53.112;7.358;2023-04-08T02:58:17;9.20;;;5.07;;
5285;SDS011;2665;53.112;7.358;2023-04-08T03:00:43;7.10;;;5.30;;
5285;SDS011;2665;53.112;7.358;2023-04-08T03:03:08;11.27;;;5.83;;
5285;SDS011;2665;53.112;7.358;2023-04-08T03:05:34;8.70;;;5.50;;
5285;SDS011;2665;53.112;7.358;2023-04-08T03:07:59;10.53;;;6.00;;
5285;SDS011;2665;53.112;7.358;2023-04-08T03:10:25;12.13;;;6.83;;
5285;SDS011;2665;53.112;7.358;2023-04-08T03:12:51;11.17;;;5.93;;
5285;SDS011;2665;53.112;7.358;2023-04-08T03:15:16;11.20;;;6.03;;
5285;SDS011;2665;53.112;7.358;2023-04-08T03:17:42;11.97;;;6.20;;
5285;SDS011;2665;53.112;7.358;2023-04-08T03:20:08;9.00;;;6.30;;
5285;SDS011;2665;53.112;7.358;2023-04-08T03:22:34;14.30;;;7.57;;
5285;SDS011;2665;53.112;7.358;2023-04-08T03:25:00;13.03;;;5.90;;
5285;SDS011;2665;53.112;7.358;2023-04-08T03:27:26;11.57;;;6.47;;
5285;SDS011;2665;53.112;7.358;2023-04-08T03:29:51;13.03;;;6.17;;
5285;SDS011;2665;53.112;7.358;2023-04-08T03:32:17;14.10;;;7.40;;
5285;SDS011;2665;53.112;7.358;2023-04-08T03:34:43;12.73;;;6.70;;
5285;SDS011;2665;53.112;7.358;2023-04-08T03:37:10;10.07;;;6.23;;
5285;SDS011;2665;53.112;7.358;2023-04-08T03:39:35;12.37;;;6.57;;
5285;SDS011;2665;53.112;7.358;2023-04-08T03:42:02;10.70;;;6.37;;
5285;SDS011;2665;53.112;7.358;2023-04-08T03:44:27;14.13;;;7.27;;
5285;SDS011;2665;53.112;7.358;2023-04-08T03:46:53;13.73;;;7.20;;
5285;SDS011;2665;53.112;7.358;2023-04-08T03:49:19;13.57;;;6.57;;
5285;SDS011;2665;53.112;7.358;2023-04-08T03:51:44;15.73;;;6.27;;
5285;SDS011;2665;53.112;7.358;2023-04-08T03:54:10;12.33;;;6.20;;
5285;SDS011;2665;53.112;7.358;2023-04-08T03:56:35;10.60;;;6.13;;
5285;SDS011;2665;53.112;7.358;2023-04-08T03:59:01;9.77;;;6.00;;
5285;SDS011;2665;53.112;7.358;2023-04-08T04:01:27;13.37;;;6.20;;
5285;SDS011;2665;53.112;7.358;2023-04-08T04:03:53;11.83;;;6.33;;
5285;SDS011;2665;53.112;7.358;2023-04-08T04:06:19;12.63;;;6.03;;
5285;SDS011;2665;53.112;7.358;2023-04-08T04:08:45;12.30;;;6.57;;
5285;SDS011;2665;53.112;7.358;2023-04-08T04:11:10;13.50;;;7.07;;
5285;SDS011;2665;53.112;7.358;2023-04-08T04:13:36;11.43;;;6.47;;
5285;SDS011;2665;53.112;7.358;2023-04-08T04:16:02;12.53;;;7.63;;
5285;SDS011;2665;53.112;7.358;2023-04-08T04:18:27;12.60;;;6.47;;
5285;SDS011;2665;53.112;7.358;2023-04-08T04:20:53;9.87;;;6.40;;
5285;SDS011;2665;53.112;7.358;2023-04-08T04:23:18;11.53;;;6.70;;
5285;SDS011;2665;53.112;7.358;2023-04-08T04:25:45;10.37;;;6.93;;
5285;SDS011;2665;53.112;7.358;2023-04-08T04:28:10;12.27;;;6.53;;
5285;SDS011;2665;53.112;7.358;2023-04-08T04:30:37;8.73;;;5.27;;
5285;SDS011;2665;53.112;7.358;2023-04-08T04:33:03;8.90;;;6.10;;
5285;SDS011;2665;53.112;7.358;2023-04-08T04:35:29;10.00;;;5.60;;
5285;SDS011;2665;53.112;7.358;2023-04-08T04:37:55;11.10;;;6.70;;
5285;SDS011;2665;53.112;7.358;2023-04-08T04:40:20;12.27;;;6.00;;
5285;SDS011;2665;53.112;7.358;2023-04-08T04:42:46;15.23;;;6.40;;
5285;SDS011;2665;53.112;7.358;2023-04-08T04:45:12;10.13;;;5.87;;
5285;SDS011;2665;53.112;7.358;2023-04-08T04:47:38;10.60;;;6.17;;
5285;SDS011;2665;53.112;7.358;2023-04-08T04:50:03;10.97;;;5.33;;
5285;SDS011;2665;53.112;7.358;2023-04-08T04:52:30;12.80;;;6.17;;
5285;SDS011;2665;53.112;7.358;2023-04-08T04:54:58;9.87;;;6.27;;
5285;SDS011;2665;53.112;7.358;2023-04-08T04:57:23;9.63;;;7.20;;
5285;SDS011;2665;53.112;7.358;2023-04-08T04:59:49;8.30;;;5.50;;
5285;SDS011;2665;53.112;7.358;2023-04-08T05:02:15;11.67;;;6.80;;
5285;SDS011;2665;53.112;7.358;2023-04-08T05:04:41;15.77;;;7.53;;
5285;SDS011;2665;53.112;7.358;2023-04-08T05:07:06;11.87;;;7.27;;
5285;SDS011;2665;53.112;7.358;2023-04-08T05:09:32;10.50;;;6.77;;
5285;SDS011;2665;53.112;7.358;2023-04-08T05:11:57;10.73;;;6.00;;
5285;SDS011;2665;53.112;7.358;2023-04-08T05:14:23;13.43;;;7.10;;
5285;SDS011;2665;53.112;7.358;2023-04-08T05:16:49;11.30;;;6.60;;
5285;SDS011;2665;53.112;7.358;2023-04-08T05:19:14;8.90;;;6.30;;
5285;SDS011;2665;53.112;7.358;2023-04-08T05:21:40;10.67;;;6.27;;
5285;SDS011;2665;53.112;7.358;2023-04-08T05:24:06;10.83;;;6.83;;
5285;SDS011;2665;53.112;7.358;2023-04-08T05:26:31;10.20;;;6.97;;
5285;SDS011;2665;53.112;7.358;2023-04-08T05:28:57;11.90;;;6.30;;
5285;SDS011;2665;53.112;7.358;2023-04-08T05:31:23;8.80;;;5.37;;
5285;SDS011;2665;53.112;7.358;2023-04-08T05:33:48;10.50;;;4.97;;
5285;SDS011;2665;53.112;7.358;2023-04-08T05:36:14;10.93;;;6.07;;
5285;SDS011;2665;53.112;7.358;2023-04-08T05:38:40;9.20;;;5.33;;
5285;SDS011;2665;53.112;7.358;2023-04-08T05:41:09;9.33;;;5.30;;
5285;SDS011;2665;53.112;7.358;2023-04-08T05:43:35;10.57;;;5.73;;
5285;SDS011;2665;53.112;7.358;2023-04-08T05:46:07;9.43;;;5.93;;
5285;SDS011;2665;53.112;7.358;2023-04-08T05:48:33;11.10;;;6.90;;
5285;SDS011;2665;53.112;7.358;2023-04-08T05:50:59;10.83;;;5.97;;
5285;SDS011;2665;53.112;7.358;2023-04-08T05:53:25;13.20;;;5.93;;
5285;SDS011;2665;53.112;7.358;2023-04-08T05:55:50;10.63;;;6.67;;
5285;SDS011;2665;53.112;7.358;2023-04-08T05:58:16;11.33;;;6.47;;
5285;SDS011;2665;53.112;7.358;2023-04-08T06:00:42;11.80;;;6.80;;
5285;SDS011;2665;53.112;7.358;2023-04-08T06:03:07;13.33;;;7.43;;
5285;SDS011;2665;53.112;7.358;2023-04-08T06:05:33;11.07;;;7.03;;
5285;SDS011;2665;53.112;7.358;2023-04-08T06:07:58;15.93;;;8.63;;
5285;SDS011;2665;53.112;7.358;2023-04-08T06:10:24;14.73;;;7.40;;
5285;SDS011;2665;53.112;7.358;2023-04-08T06:12:50;11.30;;;6.40;;
5285;SDS011;2665;53.112;7.358;2023-04-08T06:15:15;13.40;;;7.00;;
5285;SDS011;2665;53.112;7.358;2023-04-08T06:17:41;12.73;;;8.17;;
5285;SDS011;2665;53.112;7.358;2023-04-08T06:20:07;12.23;;;7.27;;
5285;SDS011;2665;53.112;7.358;2023-04-08T06:22:36;11.13;;;6.90;;
5285;SDS011;2665;53.112;7.358;2023-04-08T06:25:02;13.07;;;6.27;;
5285;SDS011;2665;53.112;7.358;2023-04-08T06:27:28;8.27;;;5.80;;
5285;SDS011;2665;53.112;7.358;2023-04-08T06:29:53;12.77;;;6.50;;
5285;SDS011;2665;53.112;7.358;2023-04-08T06:32:19;11.60;;;7.20;;
5285;SDS011;2665;53.112;7.358;2023-04-08T06:34:45;15.20;;;7.03;;
5285;SDS011;2665;53.112;7.358;2023-04-08T06:37:11;12.87;;;7.33;;
5285;SDS011;2665;53.112;7.358;2023-04-08T06:39:37;13.37;;;7.83;;
5285;SDS011;2665;53.112;7.358;2023-04-08T06:42:03;13.90;;;7.60;;
5285;SDS011;2665;53.112;7.358;2023-04-08T06:44:28;9.87;;;6.20;;
5285;SDS011;2665;53.112;7.358;2023-04-08T06:46:54;12.77;;;7.53;;
5285;SDS011;2665;53.112;7.358;2023-04-08T06:49:20;13.03;;;7.53;;
5285;SDS011;2665;53.112;7.358;2023-04-08T06:51:45;15.87;;;7.00;;
5285;SDS011;2665;53.112;7.358;2023-04-08T06:54:11;11.53;;;7.27;;
5285;SDS011;2665;53.112;7.358;2023-04-08T06:56:36;12.00;;;7.23;;
5285;SDS011;2665;53.112;7.358;2023-04-08T06:59:02;8.50;;;5.60;;
5285;SDS011;2665;53.112;7.358;2023-04-08T07:01:28;9.87;;;6.80;;
5285;SDS011;2665;53.112;7.358;2023-04-08T07:03:55;11.87;;;7.40;;
5285;SDS011;2665;53.112;7.358;2023-04-08T07:06:21;11.40;;;7.07;;
5285;SDS011;2665;53.112;7.358;2023-04-08T07:08:47;11.50;;;7.57;;
5285;SDS011;2665;53.112;7.358;2023-04-08T07:11:12;14.30;;;7.70;;
5285;SDS011;2665;53.112;7.358;2023-04-08T07:13:38;10.87;;;6.50;;
5285;SDS011;2665;53.112;7.358;2023-04-08T07:16:04;12.10;;;6.87;;
5285;SDS011;2665;53.112;7.358;2023-04-08T07:18:31;13.63;;;7.00;;
5285;SDS011;2665;53.112;7.358;2023-04-08T07:20:56;13.47;;;7.20;;
5285;SDS011;2665;53.112;7.358;2023-04-08T07:23:22;12.57;;;7.63;;
5285;SDS011;2665;53.112;7.358;2023-04-08T07:25:48;12.83;;;7.57;;
5285;SDS011;2665;53.112;7.358;2023-04-08T07:28:14;8.50;;;5.63;;
5285;SDS011;2665;53.112;7.358;2023-04-08T07:30:39;11.40;;;7.27;;
5285;SDS011;2665;53.112;7.358;2023-04-08T07:33:05;13.20;;;7.57;;
5285;SDS011;2665;53.112;7.358;2023-04-08T07:35:32;16.27;;;8.17;;
5285;SDS011;2665;53.112;7.358;2023-04-08T07:37:58;12.20;;;7.40;;
5285;SDS011;2665;53.112;7.358;2023-04-08T07:40:24;11.70;;;7.27;;
5285;SDS011;2665;53.112;7.358;2023-04-08T07:42:50;14.30;;;7.17;;
5285;SDS011;2665;53.112;7.358;2023-04-08T07:45:15;14.93;;;6.97;;
5285;SDS011;2665;53.112;7.358;2023-04-08T07:47:41;12.63;;;6.73;;
5285;SDS011;2665;53.112;7.358;2023-04-08T07:50:07;12.47;;;7.30;;
5285;SDS011;2665;53.112;7.358;2023-04-08T07:52:33;13.50;;;6.53;;
5285;SDS011;2665;53.112;7.358;2023-04-08T07:54:59;12.80;;;7.30;;
5285;SDS011;2665;53.112;7.358;2023-04-08T07:57:25;11.80;;;7.60;;
5285;SDS011;2665;53.112;7.358;2023-04-08T07:59:51;14.50;;;8.70;;
5285;SDS011;2665;53.112;7.358;2023-04-08T08:02:17;14.27;;;8.57;;
5285;SDS011;2665;53.112;7.358;2023-04-08T08:04:42;12.77;;;7.60;;
5285;SDS011;2665;53.112;7.358;2023-04-08T08:07:08;12.70;;;7.30;;
5285;SDS011;2665;53.112;7.358;2023-04-08T08:09:33;14.47;;;7.90;;
5285;SDS011;2665;53.112;7.358;2023-04-08T08:11:59;13.27;;;8.53;;
5285;SDS011;2665;53.112;7.358;2023-04-08T08:14:25;12.53;;;8.17;;
5285;SDS011;2665;53.112;7.358;2023-04-08T08:16:51;11.27;;;7.77;;
5285;SDS011;2665;53.112;7.358;2023-04-08T08:19:18;13.33;;;8.63;;
5285;SDS011;2665;53.112;7.358;2023-04-08T08:21:47;14.37;;;7.43;;
5285;SDS011;2665;53.112;7.358;2023-04-08T08:24:14;15.53;;;8.57;;
5285;SDS011;2665;53.112;7.358;2023-04-08T08:26:40;15.23;;;9.70;;
5285;SDS011;2665;53.112;7.358;2023-04-08T08:29:06;13.40;;;8.10;;
5285;SDS011;2665;53.112;7.358;2023-04-08T08:31:32;12.57;;;7.50;;
5285;SDS011;2665;53.112;7.358;2023-04-08T08:33:58;12.53;;;8.50;;
5285;SDS011;2665;53.112;7.358;2023-04-08T08:36:24;17.77;;;7.03;;
5285;SDS011;2665;53.112;7.358;2023-04-08T08:38:51;14.50;;;7.30;;
5285;SDS011;2665;53.112;7.358;2023-04-08T08:41:18;12.63;;;7.40;;
5285;SDS011;2665;53.112;7.358;2023-04-08T08:43:44;13.00;;;7.63;;
5285;SDS011;2665;53.112;7.358;2023-04-08T08:46:11;13.67;;;8.20;;
5285;SDS011;2665;53.112;7.358;2023-04-08T08:48:39;11.03;;;7.37;;
5285;SDS011;2665;53.112;7.358;2023-04-08T08:51:08;11.33;;;7.30;;
5285;SDS011;2665;53.112;7.358;2023-04-08T08:53:35;13.43;;;7.70;;
5285;SDS011;2665;53.112;7.358;2023-04-08T08:56:01;12.37;;;7.60;;
5285;SDS011;2665;53.112;7.358;2023-04-08T08:58:27;16.07;;;8.63;;
5285;SDS011;2665;53.112;7.358;2023-04-08T09:00:52;14.63;;;8.30;;
5285;SDS011;2665;53.112;7.358;2023-04-08T09:08:29;20.57;;;10.60;;
5285;SDS011;2665;53.112;7.358;2023-04-08T09:13:51;21.40;;;12.30;;
5285;SDS011;2665;53.112;7.358;2023-04-08T09:16:17;25.27;;;11.03;;
5285;SDS011;2665;53.112;7.358;2023-04-08T09:18:44;16.50;;;9.03;;
5285;SDS011;2665;53.112;7.358;2023-04-08T09:21:12;21.13;;;10.53;;
5285;SDS011;2665;53.112;7.358;2023-04-08T09:23:42;24.77;;;12.23;;
5285;SDS011;2665;53.112;7.358;2023-04-08T09:28:35;27.73;;;13.00;;
5285;SDS011;2665;53.112;7.358;2023-04-08T09:31:09;18.77;;;11.07;;
5285;SDS011;2665;53.112;7.358;2023-04-08T09:33:49;28.23;;;14.00;;
5285;SDS011;2665;53.112;7.358;2023-04-08T09:36:17;21.67;;;11.93;;
5285;SDS011;2665;53.112;7.358;2023-04-08T09:38:43;21.87;;;11.13;;
5285;SDS011;2665;53.112;7.358;2023-04-08T09:41:12;23.17;;;13.03;;
5285;SDS011;2665;53.112;7.358;2023-04-08T09:43:41;21.87;;;12.60;;
5285;SDS011;2665;53.112;7.358;2023-04-08T09:46:15;18.23;;;10.00;;
5285;SDS011;2665;53.112;7.358;2023-04-08T09:48:45;20.50;;;10.80;;
5285;SDS011;2665;53.112;7.358;2023-04-08T09:51:15;19.87;;;10.47;;
5285;SDS011;2665;53.112;7.358;2023-04-08T09:53:47;16.30;;;10.00;;
5285;SDS011;2665;53.112;7.358;2023-04-08T09:56:18;19.27;;;9.43;;
5285;SDS011;2665;53.112;7.358;2023-04-08T09:58:48;24.13;;;10.07;;
5285;SDS011;2665;53.112;7.358;2023-04-08T10:01:21;18.50;;;10.43;;
5285;SDS011;2665;53.112;7.358;2023-04-08T10:03:53;20.10;;;12.13;;
5285;SDS011;2665;53.112;7.358;2023-04-08T10:06:20;18.97;;;11.13;;
5285;SDS011;2665;53.112;7.358;2023-04-08T10:08:51;18.57;;;10.37;;
5285;SDS011;2665;53.112;7.358;2023-04-08T10:11:18;22.67;;;11.13;;
5285;SDS011;2665;53.112;7.358;2023-04-08T10:13:43;20.80;;;12.17;;
5285;SDS011;2665;53.112;7.358;2023-04-08T10:18:51;22.40;;;12.43;;
5285;SDS011;2665;53.112;7.358;2023-04-08T10:21:38;18.63;;;10.97;;
5285;SDS011;2665;53.112;7.358;2023-04-08T10:24:12;19.10;;;11.20;;
5285;SDS011;2665;53.112;7.358;2023-04-08T10:26:39;20.70;;;11.00;;
5285;SDS011;2665;53.112;7.358;2023-04-08T10:31:45;17.97;;;10.77;;
5285;SDS011;2665;53.112;7.358;2023-04-08T10:34:15;21.83;;;11.60;;
5285;SDS011;2665;53.112;7.358;2023-04-08T10:36:45;17.40;;;11.90;;
5285;SDS011;2665;53.112;7.358;2023-04-08T10:39:11;19.37;;;10.50;;
5285;SDS011;2665;53.112;7.358;2023-04-08T10:41:42;21.67;;;12.17;;
5285;SDS011;2665;53.112;7.358;2023-04-08T10:44:21;27.60;;;14.33;;
5285;SDS011;2665;53.112;7.358;2023-04-08T10:46:49;19.67;;;12.83;;
5285;SDS011;2665;53.112;7.358;2023-04-08T10:49:16;25.83;;;13.20;;
5285;SDS011;2665;53.112;7.358;2023-04-08T10:51:42;22.67;;;12.60;;
5285;SDS011;2665;53.112;7.358;2023-04-08T10:54:09;21.67;;;13.47;;
5285;SDS011;2665;53.112;7.358;2023-04-08T10:56:47;26.47;;;14.90;;
5285;SDS011;2665;53.112;7.358;2023-04-08T10:59:14;23.37;;;12.00;;
5285;SDS011;2665;53.112;7.358;2023-04-08T11:01:42;24.03;;;13.80;;
5285;SDS011;2665;53.112;7.358;2023-04-08T11:04:12;24.70;;;14.67;;
5285;SDS011;2665;53.112;7.358;2023-04-08T11:06:40;32.03;;;12.97;;
5285;SDS011;2665;53.112;7.358;2023-04-08T11:09:07;25.73;;;12.83;;
5285;SDS011;2665;53.112;7.358;2023-04-08T11:11:33;23.20;;;13.40;;
5285;SDS011;2665;53.112;7.358;2023-04-08T11:13:58;20.60;;;13.17;;
5285;SDS011;2665;53.112;7.358;2023-04-08T11:16:25;28.53;;;14.93;;
5285;SDS011;2665;53.112;7.358;2023-04-08T11:18:52;25.20;;;14.87;;
5285;SDS011;2665;53.112;7.358;2023-04-08T11:21:18;36.37;;;14.57;;
5285;SDS011;2665;53.112;7.358;2023-04-08T11:23:43;26.50;;;14.30;;
5285;SDS011;2665;53.112;7.358;2023-04-08T11:26:09;36.30;;;17.00;;
5285;SDS011;2665;53.112;7.358;2023-04-08T11:28:35;30.90;;;16.10;;
5285;SDS011;2665;53.112;7.358;2023-04-08T11:31:01;29.83;;;16.97;;
5285;SDS011;2665;53.112;7.358;2023-04-08T11:33:31;38.33;;;18.00;;
5285;SDS011;2665;53.112;7.358;2023-04-08T11:35:59;48.83;;;21.20;;
5285;SDS011;2665;53.112;7.358;2023-04-08T11:38:28;37.33;;;19.03;;
5285;SDS011;2665;53.112;7.358;2023-04-08T11:40:57;31.90;;;18.70;;
5285;SDS011;2665;53.112;7.358;2023-04-08T11:43:24;33.67;;;19.57;;
5285;SDS011;2665;53.112;7.358;2023-04-08T11:45:53;28.70;;;17.40;;
5285;SDS011;2665;53.112;7.358;2023-04-08T11:48:18;41.17;;;20.17;;
5285;SDS011;2665;53.112;7.358;2023-04-08T11:50:44;37.43;;;19.27;;
5285;SDS011;2665;53.112;7.358;2023-04-08T11:53:16;34.63;;;18.30;;
5285;SDS011;2665;53.112;7.358;2023-04-08T11:55:45;33.63;;;19.63;;
5285;SDS011;2665;53.112;7.358;2023-04-08T11:58:12;35.87;;;18.87;;
5285;SDS011;2665;53.112;7.358;2023-04-08T12:00:38;40.30;;;20.63;;
5285;SDS011;2665;53.112;7.358;2023-04-08T12:03:04;30.40;;;17.30;;
5285;SDS011;2665;53.112;7.358;2023-04-08T12:05:31;31.73;;;18.33;;
5285;SDS011;2665;53.112;7.358;2023-04-08T12:07:56;26.77;;;16.40;;
5285;SDS011;2665;53.112;7.358;2023-04-08T12:10:22;33.03;;;19.37;;
5285;SDS011;2665;53.112;7.358;2023-04-08T12:12:49;30.37;;;17.53;;
5285;SDS011;2665;53.112;7.358;2023-04-08T12:15:15;30.53;;;18.87;;
5285;SDS011;2665;53.112;7.358;2023-04-08T12:17:40;35.57;;;18.90;;
5285;SDS011;2665;53.112;7.358;2023-04-08T12:20:07;35.13;;;21.83;;
5285;SDS011;2665;53.112;7.358;2023-04-08T12:22:34;41.03;;;21.80;;
5285;SDS011;2665;53.112;7.358;2023-04-08T12:24:59;39.50;;;22.87;;
5285;SDS011;2665;53.112;7.358;2023-04-08T12:27:27;37.73;;;20.23;;
5285;SDS011;2665;53.112;7.358;2023-04-08T12:29:52;40.77;;;22.83;;
5285;SDS011;2665;53.112;7.358;2023-04-08T12:32:19;38.60;;;21.60;;
5285;SDS011;2665;53.112;7.358;2023-04-08T12:34:45;32.63;;;21.37;;
5285;SDS011;2665;53.112;7.358;2023-04-08T12:37:11;34.90;;;21.67;;
5285;SDS011;2665;53.112;7.358;2023-04-08T12:39:37;29.03;;;17.43;;
5285;SDS011;2665;53.112;7.358;2023-04-08T12:42:03;36.90;;;18.77;;
5285;SDS011;2665;53.112;7.358;2023-04-08T12:44:29;29.83;;;17.93;;
5285;SDS011;2665;53.112;7.358;2023-04-08T12:46:54;28.20;;;17.37;;
5285;SDS011;2665;53.112;7.358;2023-04-08T12:49:22;29.47;;;17.57;;
5285;SDS011;2665;53.112;7.358;2023-04-08T12:51:48;23.07;;;17.20;;
5285;SDS011;2665;53.112;7.358;2023-04-08T12:54:14;32.63;;;18.70;;
5285;SDS011;2665;53.112;7.358;2023-04-08T12:56:40;29.23;;;16.70;;
5285;SDS011;2665;53.112;7.358;2023-04-08T12:59:07;24.17;;;15.63;;
5285;SDS011;2665;53.112;7.358;2023-04-08T13:01:33;22.80;;;13.93;;
5285;SDS011;2665;53.112;7.358;2023-04-08T13:03:59;23.13;;;15.70;;
5285;SDS011;2665;53.112;7.358;2023-04-08T13:06:25;27.43;;;18.70;;
5285;SDS011;2665;53.112;7.358;2023-04-08T13:08:51;25.77;;;16.20;;
5285;SDS011;2665;53.112;7.358;2023-04-08T13:11:17;27.03;;;17.63;;
5285;SDS011;2665;53.112;7.358;2023-04-08T13:13:43;28.20;;;15.87;;
5285;SDS011;2665;53.112;7.358;2023-04-08T13:16:10;26.30;;;14.63;;
5285;SDS011;2665;53.112;7.358;2023-04-08T13:18:36;22.17;;;15.70;;
5285;SDS011;2665;53.112;7.358;2023-04-08T13:21:02;22.63;;;13.67;;
5285;SDS011;2665;53.112;7.358;2023-04-08T13:23:27;20.73;;;12.50;;
5285;SDS011;2665;53.112;7.358;2023-04-08T13:25:53;19.60;;;13.33;;
5285;SDS011;2665;53.112;7.358;2023-04-08T13:28:18;21.70;;;14.47;;
5285;SDS011;2665;53.112;7.358;2023-04-08T13:30:44;24.83;;;15.37;;
5285;SDS011;2665;53.112;7.358;2023-04-08T13:33:10;20.90;;;14.50;;
5285;SDS011;2665;53.112;7.358;2023-04-08T13:35:35;20.97;;;13.67;;
5285;SDS011;2665;53.112;7.358;2023-04-08T13:38:01;20.30;;;14.43;;
5285;SDS011;2665;53.112;7.358;2023-04-08T13:40:27;20.93;;;14.07;;
5285;SDS011;2665;53.112;7.358;2023-04-08T13:42:52;24.43;;;14.03;;
5285;SDS011;2665;53.112;7.358;2023-04-08T13:45:18;23.20;;;15.37;;
5285;SDS011;2665;53.112;7.358;2023-04-08T13:47:44;21.93;;;15.37;;
5285;SDS011;2665;53.112;7.358;2023-04-08T13:50:10;22.30;;;15.87;;
5285;SDS011;2665;53.112;7.358;2023-04-08T13:52:35;24.00;;;15.87;;
5285;SDS011;2665;53.112;7.358;2023-04-08T13:55:01;29.90;;;16.37;;
5285;SDS011;2665;53.112;7.358;2023-04-08T13:57:27;22.90;;;15.00;;
5285;SDS011;2665;53.112;7.358;2023-04-08T13:59:52;19.97;;;13.53;;
5285;SDS011;2665;53.112;7.358;2023-04-08T14:02:18;23.40;;;14.47;;
5285;SDS011;2665;53.112;7.358;2023-04-08T14:04:44;24.97;;;13.80;;
5285;SDS011;2665;53.112;7.358;2023-04-08T14:07:10;21.17;;;14.37;;
5285;SDS011;2665;53.112;7.358;2023-04-08T14:09:36;21.10;;;13.00;;
5285;SDS011;2665;53.112;7.358;2023-04-08T14:12:02;26.13;;;15.63;;
5285;SDS011;2665;53.112;7.358;2023-04-08T14:14:28;20.40;;;15.83;;
5285;SDS011;2665;53.112;7.358;2023-04-08T14:16:53;20.87;;;14.50;;
5285;SDS011;2665;53.112;7.358;2023-04-08T14:19:19;21.07;;;14.43;;
5285;SDS011;2665;53.112;7.358;2023-04-08T14:21:45;19.40;;;13.57;;
5285;SDS011;2665;53.112;7.358;2023-04-08T14:24:10;19.60;;;12.60;;
5285;SDS011;2665;53.112;7.358;2023-04-08T14:26:36;21.40;;;14.17;;
5285;SDS011;2665;53.112;7.358;2023-04-08T14:29:02;28.97;;;15.60;;
5285;SDS011;2665;53.112;7.358;2023-04-08T14:31:30;20.00;;;13.80;;
5285;SDS011;2665;53.112;7.358;2023-04-08T14:33:56;20.93;;;14.30;;
5285;SDS011;2665;53.112;7.358;2023-04-08T14:36:22;22.90;;;15.80;;
5285;SDS011;2665;53.112;7.358;2023-04-08T14:38:48;25.07;;;14.27;;
5285;SDS011;2665;53.112;7.358;2023-04-08T14:41:14;20.07;;;15.00;;
5285;SDS011;2665;53.112;7.358;2023-04-08T14:43:40;26.10;;;15.30;;
5285;SDS011;2665;53.112;7.358;2023-04-08T14:46:05;19.90;;;13.80;;
5285;SDS011;2665;53.112;7.358;2023-04-08T14:48:31;21.33;;;15.00;;
5285;SDS011;2665;53.112;7.358;2023-04-08T14:50:57;18.27;;;13.80;;
5285;SDS011;2665;53.112;7.358;2023-04-08T14:53:23;18.50;;;14.60;;
5285;SDS011;2665;53.112;7.358;2023-04-08T14:55:49;18.27;;;14.33;;
5285;SDS011;2665;53.112;7.358;2023-04-08T14:58:15;18.10;;;13.97;;
5285;SDS011;2665;53.112;7.358;2023-04-08T15:00:41;21.50;;;16.10;;
5285;SDS011;2665;53.112;7.358;2023-04-08T15:03:09;27.10;;;16.37;;
5285;SDS011;2665;53.112;7.358;2023-04-08T15:05:35;25.43;;;15.80;;
5285;SDS011;2665;53.112;7.358;2023-04-08T15:08:02;24.43;;;17.43;;
5285;SDS011;2665;53.112;7.358;2023-04-08T15:10:28;21.70;;;15.60;;
5285;SDS011;2665;53.112;7.358;2023-04-08T15:12:54;24.70;;;17.10;;
5285;SDS011;2665;53.112;7.358;2023-04-08T15:15:20;24.33;;;16.17;;
5285;SDS011;2665;53.112;7.358;2023-04-08T15:17:45;26.47;;;18.00;;